sensor_id;sensor_type;location;lat;lon;timestamp;P1;durP1;ratioP1;P2;durP2;ratioP2
40669;SDS011;26355;45.528;9.234;2023-07-16T00:01:52;16.85;;;7.30;;
40669;SDS011;26355;45.528;9.234;2023-07-16T00:04:17;20.38;;;8.35;;
40669;SDS011;26355;45.528;9.234;2023-07-16T00:06:43;18.30;;;8.18;;
40669;SDS011;26355;45.528;9.234;2023-07-16T00:09:08;21.38;;;9.00;;
40669;SDS011;26355;45.528;9.234;2023-07-16T00:11:34;17.95;;;7.93;;
40669;SDS011;26355;45.528;9.234;2023-07-16T00:14:00;18.13;;;8.77;;
40669;SDS011;26355;45.528;9.234;2023-07-16T00:16:26;21.20;;;9.52;;
40669;SDS011;26355;45.528;9.234;2023-07-16T00:18:52;18.27;;;8.45;;
40669;SDS011;26355;45.528;9.234;2023-07-16T00:21:18;19.92;;;8.65;;
40669;SDS011;26355;45.528;9.234;2023-07-16T00:23:43;20.27;;;8.80;;
40669;SDS011;26355;45.528;9.234;2023-07-16T00:26:09;20.33;;;9.43;;
40669;SDS011;26355;45.528;9.234;2023-07-16T00:28:35;24.75;;;9.20;;
40669;SDS011;26355;45.528;9.234;2023-07-16T00:31:01;20.52;;;9.73;;
40669;SDS011;26355;45.528;9.234;2023-07-16T00:33:26;18.65;;;8.90;;
40669;SDS011;26355;45.528;9.234;2023-07-16T00:35:52;20.60;;;9.27;;
40669;SDS011;26355;45.528;9.234;2023-07-16T00:38:17;19.52;;;8.85;;
40669;SDS011;26355;45.528;9.234;2023-07-16T00:40:43;18.58;;;8.93;;
40669;SDS011;26355;45.528;9.234;2023-07-16T00:43:10;18.23;;;8.50;;
40669;SDS011;26355;45.528;9.234;2023-07-16T00:45:35;18.60;;;9.40;;
40669;SDS011;26355;45.528;9.234;2023-07-16T00:52:58;19.98;;;8.63;;
40669;SDS011;26355;45.528;9.234;2023-07-16T00:55:28;19.35;;;8.73;;
40669;SDS011;26355;45.528;9.234;2023-07-16T00:57:55;18.55;;;8.45;;
40669;SDS011;26355;45.528;9.234;2023-07-16T01:00:30;18.38;;;8.80;;
40669;SDS011;26355;45.528;9.234;2023-07-16T01:03:00;18.02;;;8.48;;
40669;SDS011;26355;45.528;9.234;2023-07-16T01:05:33;18.05;;;8.48;;
40669;SDS011;26355;45.528;9.234;2023-07-16T01:08:06;20.63;;;8.45;;
40669;SDS011;26355;45.528;9.234;2023-07-16T01:10:34;20.52;;;8.70;;
40669;SDS011;26355;45.528;9.234;2023-07-16T01:13:02;20.38;;;9.57;;
40669;SDS011;26355;45.528;9.234;2023-07-16T01:15:28;20.37;;;9.27;;
40669;SDS011;26355;45.528;9.234;2023-07-16T01:17:54;21.20;;;8.63;;
40669;SDS011;26355;45.528;9.234;2023-07-16T01:20:19;19.52;;;9.25;;
40669;SDS011;26355;45.528;9.234;2023-07-16T01:25:36;21.02;;;9.45;;
40669;SDS011;26355;45.528;9.234;2023-07-16T01:31:06;18.52;;;8.73;;
40669;SDS011;26355;45.528;9.234;2023-07-16T01:33:35;18.40;;;8.95;;
40669;SDS011;26355;45.528;9.234;2023-07-16T01:36:03;21.13;;;9.23;;
40669;SDS011;26355;45.528;9.234;2023-07-16T01:38:29;19.00;;;8.93;;
40669;SDS011;26355;45.528;9.234;2023-07-16T01:40:55;19.73;;;8.93;;
40669;SDS011;26355;45.528;9.234;2023-07-16T01:43:20;19.15;;;9.43;;
40669;SDS011;26355;45.528;9.234;2023-07-16T01:45:46;17.77;;;8.80;;
40669;SDS011;26355;45.528;9.234;2023-07-16T01:48:28;17.13;;;8.13;;
40669;SDS011;26355;45.528;9.234;2023-07-16T01:50:57;18.50;;;8.57;;
40669;SDS011;26355;45.528;9.234;2023-07-16T01:53:22;19.65;;;8.73;;
40669;SDS011;26355;45.528;9.234;2023-07-16T01:55:48;19.60;;;9.10;;
40669;SDS011;26355;45.528;9.234;2023-07-16T01:58:13;19.88;;;9.38;;
40669;SDS011;26355;45.528;9.234;2023-07-16T02:00:39;19.88;;;9.05;;
40669;SDS011;26355;45.528;9.234;2023-07-16T02:03:05;20.95;;;8.48;;
40669;SDS011;26355;45.528;9.234;2023-07-16T02:05:31;21.27;;;9.48;;
40669;SDS011;26355;45.528;9.234;2023-07-16T02:07:56;19.60;;;9.05;;
40669;SDS011;26355;45.528;9.234;2023-07-16T02:10:22;18.45;;;9.50;;
40669;SDS011;26355;45.528;9.234;2023-07-16T02:12:48;20.08;;;9.52;;
40669;SDS011;26355;45.528;9.234;2023-07-16T02:15:14;18.48;;;8.95;;
40669;SDS011;26355;45.528;9.234;2023-07-16T02:17:40;19.23;;;9.85;;
40669;SDS011;26355;45.528;9.234;2023-07-16T02:20:06;19.35;;;8.85;;
40669;SDS011;26355;45.528;9.234;2023-07-16T02:22:33;19.40;;;9.13;;
40669;SDS011;26355;45.528;9.234;2023-07-16T02:25:00;19.38;;;9.13;;
40669;SDS011;26355;45.528;9.234;2023-07-16T02:27:26;21.05;;;9.73;;
40669;SDS011;26355;45.528;9.234;2023-07-16T02:29:52;17.85;;;8.10;;
40669;SDS011;26355;45.528;9.234;2023-07-16T02:32:17;20.05;;;8.80;;
40669;SDS011;26355;45.528;9.234;2023-07-16T02:34:43;19.55;;;9.40;;
40669;SDS011;26355;45.528;9.234;2023-07-16T02:37:08;18.63;;;9.48;;
40669;SDS011;26355;45.528;9.234;2023-07-16T02:39:34;17.73;;;8.15;;
40669;SDS011;26355;45.528;9.234;2023-07-16T02:42:00;19.95;;;8.90;;
40669;SDS011;26355;45.528;9.234;2023-07-16T02:44:25;18.73;;;8.80;;
40669;SDS011;26355;45.528;9.234;2023-07-16T02:46:51;17.73;;;8.98;;
40669;SDS011;26355;45.528;9.234;2023-07-16T02:49:16;20.25;;;8.52;;
40669;SDS011;26355;45.528;9.234;2023-07-16T02:51:42;22.60;;;9.90;;
40669;SDS011;26355;45.528;9.234;2023-07-16T02:54:08;18.10;;;8.73;;
40669;SDS011;26355;45.528;9.234;2023-07-16T02:56:34;20.77;;;9.60;;
40669;SDS011;26355;45.528;9.234;2023-07-16T02:58:59;19.17;;;8.38;;
40669;SDS011;26355;45.528;9.234;2023-07-16T03:01:25;19.88;;;9.00;;
40669;SDS011;26355;45.528;9.234;2023-07-16T03:03:50;18.77;;;8.63;;
40669;SDS011;26355;45.528;9.234;2023-07-16T03:06:16;18.08;;;9.07;;
40669;SDS011;26355;45.528;9.234;2023-07-16T03:08:42;17.20;;;8.27;;
40669;SDS011;26355;45.528;9.234;2023-07-16T03:11:07;18.08;;;8.48;;
40669;SDS011;26355;45.528;9.234;2023-07-16T03:13:33;22.02;;;8.82;;
40669;SDS011;26355;45.528;9.234;2023-07-16T03:15:59;17.88;;;8.88;;
40669;SDS011;26355;45.528;9.234;2023-07-16T03:18:27;19.02;;;9.18;;
40669;SDS011;26355;45.528;9.234;2023-07-16T03:20:54;21.30;;;8.77;;
40669;SDS011;26355;45.528;9.234;2023-07-16T03:23:20;19.35;;;8.73;;
40669;SDS011;26355;45.528;9.234;2023-07-16T03:25:45;21.85;;;9.60;;
40669;SDS011;26355;45.528;9.234;2023-07-16T03:28:11;18.70;;;9.05;;
40669;SDS011;26355;45.528;9.234;2023-07-16T03:30:36;17.40;;;9.10;;
40669;SDS011;26355;45.528;9.234;2023-07-16T03:33:02;18.20;;;9.15;;
40669;SDS011;26355;45.528;9.234;2023-07-16T03:35:29;24.58;;;9.10;;
40669;SDS011;26355;45.528;9.234;2023-07-16T03:37:55;18.23;;;8.52;;
40669;SDS011;26355;45.528;9.234;2023-07-16T03:40:23;19.88;;;9.13;;
40669;SDS011;26355;45.528;9.234;2023-07-16T03:42:50;17.20;;;8.40;;
40669;SDS011;26355;45.528;9.234;2023-07-16T03:45:16;19.65;;;9.23;;
40669;SDS011;26355;45.528;9.234;2023-07-16T03:47:41;19.02;;;8.98;;
40669;SDS011;26355;45.528;9.234;2023-07-16T03:50:07;18.05;;;8.48;;
40669;SDS011;26355;45.528;9.234;2023-07-16T03:52:33;18.83;;;9.18;;
40669;SDS011;26355;45.528;9.234;2023-07-16T03:54:59;17.23;;;8.63;;
40669;SDS011;26355;45.528;9.234;2023-07-16T03:57:25;19.65;;;8.80;;
40669;SDS011;26355;45.528;9.234;2023-07-16T03:59:51;19.58;;;9.23;;
40669;SDS011;26355;45.528;9.234;2023-07-16T04:02:17;16.95;;;8.50;;
40669;SDS011;26355;45.528;9.234;2023-07-16T04:04:42;18.10;;;9.07;;
40669;SDS011;26355;45.528;9.234;2023-07-16T04:07:08;19.15;;;9.30;;
40669;SDS011;26355;45.528;9.234;2023-07-16T04:09:36;19.15;;;8.77;;
40669;SDS011;26355;45.528;9.234;2023-07-16T04:12:03;17.80;;;8.55;;
40669;SDS011;26355;45.528;9.234;2023-07-16T04:14:29;19.40;;;8.93;;
40669;SDS011;26355;45.528;9.234;2023-07-16T04:16:55;21.67;;;9.13;;
40669;SDS011;26355;45.528;9.234;2023-07-16T04:19:20;18.50;;;9.40;;
40669;SDS011;26355;45.528;9.234;2023-07-16T04:21:46;18.38;;;9.15;;
40669;SDS011;26355;45.528;9.234;2023-07-16T04:24:11;19.45;;;8.85;;
40669;SDS011;26355;45.528;9.234;2023-07-16T04:26:37;19.25;;;8.50;;
40669;SDS011;26355;45.528;9.234;2023-07-16T04:29:02;19.50;;;9.18;;
40669;SDS011;26355;45.528;9.234;2023-07-16T04:31:28;19.95;;;9.50;;
40669;SDS011;26355;45.528;9.234;2023-07-16T04:33:54;18.67;;;8.90;;
40669;SDS011;26355;45.528;9.234;2023-07-16T04:36:19;18.83;;;9.55;;
40669;SDS011;26355;45.528;9.234;2023-07-16T04:38:45;20.08;;;9.50;;
40669;SDS011;26355;45.528;9.234;2023-07-16T04:41:10;20.15;;;9.43;;
40669;SDS011;26355;45.528;9.234;2023-07-16T04:43:37;20.67;;;9.07;;
40669;SDS011;26355;45.528;9.234;2023-07-16T04:46:03;17.52;;;8.65;;
40669;SDS011;26355;45.528;9.234;2023-07-16T04:48:29;20.23;;;9.60;;
40669;SDS011;26355;45.528;9.234;2023-07-16T04:50:54;19.63;;;8.73;;
40669;SDS011;26355;45.528;9.234;2023-07-16T04:53:20;19.67;;;9.75;;
40669;SDS011;26355;45.528;9.234;2023-07-16T04:55:47;19.45;;;9.07;;
40669;SDS011;26355;45.528;9.234;2023-07-16T04:58:12;19.02;;;8.73;;
40669;SDS011;26355;45.528;9.234;2023-07-16T05:00:39;18.17;;;8.88;;
40669;SDS011;26355;45.528;9.234;2023-07-16T05:03:05;18.73;;;9.65;;
40669;SDS011;26355;45.528;9.234;2023-07-16T05:05:31;18.08;;;9.30;;
40669;SDS011;26355;45.528;9.234;2023-07-16T05:07:56;18.70;;;9.43;;
40669;SDS011;26355;45.528;9.234;2023-07-16T05:10:22;19.58;;;9.23;;
40669;SDS011;26355;45.528;9.234;2023-07-16T05:12:48;19.37;;;9.47;;
40669;SDS011;26355;45.528;9.234;2023-07-16T05:15:14;20.23;;;9.70;;
40669;SDS011;26355;45.528;9.234;2023-07-16T05:17:41;17.67;;;9.48;;
40669;SDS011;26355;45.528;9.234;2023-07-16T05:20:07;19.25;;;9.50;;
40669;SDS011;26355;45.528;9.234;2023-07-16T05:22:34;19.35;;;9.75;;
40669;SDS011;26355;45.528;9.234;2023-07-16T05:25:00;18.50;;;10.13;;
40669;SDS011;26355;45.528;9.234;2023-07-16T05:27:25;20.08;;;10.65;;
40669;SDS011;26355;45.528;9.234;2023-07-16T05:29:51;19.27;;;9.70;;
40669;SDS011;26355;45.528;9.234;2023-07-16T05:32:16;18.73;;;9.70;;
40669;SDS011;26355;45.528;9.234;2023-07-16T05:34:42;19.92;;;9.82;;
40669;SDS011;26355;45.528;9.234;2023-07-16T05:37:08;21.90;;;9.50;;
40669;SDS011;26355;45.528;9.234;2023-07-16T05:39:33;20.90;;;9.50;;
40669;SDS011;26355;45.528;9.234;2023-07-16T05:41:59;19.33;;;9.38;;
40669;SDS011;26355;45.528;9.234;2023-07-16T05:44:27;19.50;;;9.30;;
40669;SDS011;26355;45.528;9.234;2023-07-16T05:46:53;20.92;;;9.80;;
40669;SDS011;26355;45.528;9.234;2023-07-16T05:49:18;17.92;;;8.77;;
40669;SDS011;26355;45.528;9.234;2023-07-16T05:51:44;18.75;;;9.40;;
40669;SDS011;26355;45.528;9.234;2023-07-16T05:54:09;19.13;;;9.10;;
40669;SDS011;26355;45.528;9.234;2023-07-16T05:56:35;17.63;;;8.15;;
40669;SDS011;26355;45.528;9.234;2023-07-16T05:59:00;19.35;;;9.07;;
40669;SDS011;26355;45.528;9.234;2023-07-16T06:01:26;16.42;;;8.10;;
40669;SDS011;26355;45.528;9.234;2023-07-16T06:03:52;19.02;;;9.32;;
40669;SDS011;26355;45.528;9.234;2023-07-16T06:06:17;18.63;;;8.27;;
40669;SDS011;26355;45.528;9.234;2023-07-16T06:08:43;19.15;;;8.52;;
40669;SDS011;26355;45.528;9.234;2023-07-16T06:11:08;19.00;;;8.65;;
40669;SDS011;26355;45.528;9.234;2023-07-16T06:13:34;21.42;;;8.68;;
40669;SDS011;26355;45.528;9.234;2023-07-16T06:15:59;18.20;;;8.57;;
40669;SDS011;26355;45.528;9.234;2023-07-16T06:18:25;18.90;;;8.10;;
40669;SDS011;26355;45.528;9.234;2023-07-16T06:20:51;18.83;;;8.07;;
40669;SDS011;26355;45.528;9.234;2023-07-16T06:23:17;17.05;;;7.50;;
40669;SDS011;26355;45.528;9.234;2023-07-16T06:25:43;18.50;;;8.75;;
40669;SDS011;26355;45.528;9.234;2023-07-16T06:28:09;20.27;;;8.73;;
40669;SDS011;26355;45.528;9.234;2023-07-16T06:30:36;18.23;;;7.93;;
40669;SDS011;26355;45.528;9.234;2023-07-16T06:33:02;18.05;;;7.72;;
40669;SDS011;26355;45.528;9.234;2023-07-16T06:35:28;18.15;;;8.07;;
40669;SDS011;26355;45.528;9.234;2023-07-16T06:37:53;17.58;;;8.20;;
40669;SDS011;26355;45.528;9.234;2023-07-16T06:40:19;17.50;;;7.40;;
40669;SDS011;26355;45.528;9.234;2023-07-16T06:42:44;18.50;;;7.90;;
40669;SDS011;26355;45.528;9.234;2023-07-16T06:45:10;16.73;;;7.18;;
40669;SDS011;26355;45.528;9.234;2023-07-16T06:47:35;18.42;;;7.68;;
40669;SDS011;26355;45.528;9.234;2023-07-16T06:50:01;17.77;;;7.90;;
40669;SDS011;26355;45.528;9.234;2023-07-16T06:52:27;17.27;;;7.65;;
40669;SDS011;26355;45.528;9.234;2023-07-16T06:54:53;16.85;;;7.45;;
40669;SDS011;26355;45.528;9.234;2023-07-16T06:57:20;18.88;;;7.93;;
40669;SDS011;26355;45.528;9.234;2023-07-16T06:59:46;19.25;;;8.23;;
40669;SDS011;26355;45.528;9.234;2023-07-16T07:02:11;17.27;;;7.70;;
40669;SDS011;26355;45.528;9.234;2023-07-16T07:04:37;18.08;;;7.60;;
40669;SDS011;26355;45.528;9.234;2023-07-16T07:07:03;22.45;;;8.15;;
40669;SDS011;26355;45.528;9.234;2023-07-16T07:09:29;17.77;;;8.20;;
40669;SDS011;26355;45.528;9.234;2023-07-16T07:11:55;19.75;;;7.78;;
40669;SDS011;26355;45.528;9.234;2023-07-16T07:14:20;17.80;;;7.65;;
40669;SDS011;26355;45.528;9.234;2023-07-16T07:16:46;19.23;;;8.02;;
40669;SDS011;26355;45.528;9.234;2023-07-16T07:19:11;17.90;;;7.68;;
40669;SDS011;26355;45.528;9.234;2023-07-16T07:21:37;19.73;;;8.02;;
40669;SDS011;26355;45.528;9.234;2023-07-16T07:24:02;21.73;;;8.48;;
40669;SDS011;26355;45.528;9.234;2023-07-16T07:26:28;19.23;;;7.95;;
40669;SDS011;26355;45.528;9.234;2023-07-16T07:28:54;19.13;;;7.90;;
40669;SDS011;26355;45.528;9.234;2023-07-16T07:31:19;19.23;;;7.93;;
40669;SDS011;26355;45.528;9.234;2023-07-16T07:33:45;17.70;;;8.05;;
40669;SDS011;26355;45.528;9.234;2023-07-16T07:36:10;18.75;;;8.45;;
40669;SDS011;26355;45.528;9.234;2023-07-16T07:38:36;20.52;;;8.52;;
40669;SDS011;26355;45.528;9.234;2023-07-16T07:41:01;16.73;;;7.72;;
40669;SDS011;26355;45.528;9.234;2023-07-16T07:43:27;17.95;;;8.85;;
40669;SDS011;26355;45.528;9.234;2023-07-16T07:45:52;19.23;;;8.40;;
40669;SDS011;26355;45.528;9.234;2023-07-16T07:48:18;17.95;;;7.63;;
40669;SDS011;26355;45.528;9.234;2023-07-16T07:50:45;18.98;;;7.65;;
40669;SDS011;26355;45.528;9.234;2023-07-16T07:53:11;20.35;;;7.70;;
40669;SDS011;26355;45.528;9.234;2023-07-16T07:55:37;18.45;;;7.35;;
40669;SDS011;26355;45.528;9.234;2023-07-16T07:58:02;17.80;;;7.63;;
40669;SDS011;26355;45.528;9.234;2023-07-16T08:00:28;15.80;;;7.05;;
40669;SDS011;26355;45.528;9.234;2023-07-16T08:02:53;17.45;;;7.55;;
40669;SDS011;26355;45.528;9.234;2023-07-16T08:05:19;18.58;;;7.70;;
40669;SDS011;26355;45.528;9.234;2023-07-16T08:07:44;17.63;;;7.93;;
40669;SDS011;26355;45.528;9.234;2023-07-16T08:10:10;17.27;;;7.43;;
40669;SDS011;26355;45.528;9.234;2023-07-16T08:12:35;19.35;;;7.75;;
40669;SDS011;26355;45.528;9.234;2023-07-16T08:15:01;17.50;;;7.88;;
40669;SDS011;26355;45.528;9.234;2023-07-16T08:17:27;19.85;;;7.22;;
40669;SDS011;26355;45.528;9.234;2023-07-16T08:19:52;21.30;;;7.03;;
40669;SDS011;26355;45.528;9.234;2023-07-16T08:22:18;19.08;;;7.57;;
40669;SDS011;26355;45.528;9.234;2023-07-16T08:24:43;18.00;;;8.07;;
40669;SDS011;26355;45.528;9.234;2023-07-16T08:27:09;18.35;;;7.22;;
40669;SDS011;26355;45.528;9.234;2023-07-16T08:29:37;16.65;;;7.03;;
40669;SDS011;26355;45.528;9.234;2023-07-16T08:32:03;17.85;;;7.85;;
40669;SDS011;26355;45.528;9.234;2023-07-16T08:36:55;16.60;;;7.20;;
40669;SDS011;26355;45.528;9.234;2023-07-16T08:39:21;16.35;;;7.13;;
40669;SDS011;26355;45.528;9.234;2023-07-16T08:41:47;17.00;;;7.10;;
40669;SDS011;26355;45.528;9.234;2023-07-16T08:44:13;17.52;;;6.97;;
40669;SDS011;26355;45.528;9.234;2023-07-16T08:46:39;16.95;;;7.57;;
40669;SDS011;26355;45.528;9.234;2023-07-16T08:49:06;18.27;;;7.00;;
40669;SDS011;26355;45.528;9.234;2023-07-16T08:51:32;18.92;;;7.80;;
40669;SDS011;26355;45.528;9.234;2023-07-16T08:54:00;19.23;;;7.90;;
40669;SDS011;26355;45.528;9.234;2023-07-16T08:56:26;19.30;;;7.65;;
40669;SDS011;26355;45.528;9.234;2023-07-16T08:58:53;18.10;;;7.40;;
40669;SDS011;26355;45.528;9.234;2023-07-16T09:01:23;19.02;;;7.80;;
40669;SDS011;26355;45.528;9.234;2023-07-16T09:03:49;17.83;;;6.95;;
40669;SDS011;26355;45.528;9.234;2023-07-16T09:06:14;21.40;;;7.03;;
40669;SDS011;26355;45.528;9.234;2023-07-16T09:08:40;17.45;;;6.75;;
40669;SDS011;26355;45.528;9.234;2023-07-16T09:11:05;14.95;;;6.22;;
40669;SDS011;26355;45.528;9.234;2023-07-16T09:13:37;16.98;;;6.93;;
40669;SDS011;26355;45.528;9.234;2023-07-16T09:16:02;19.30;;;7.20;;
40669;SDS011;26355;45.528;9.234;2023-07-16T09:18:28;17.63;;;6.93;;
40669;SDS011;26355;45.528;9.234;2023-07-16T09:20:57;20.27;;;7.83;;
40669;SDS011;26355;45.528;9.234;2023-07-16T09:23:25;18.33;;;7.57;;
40669;SDS011;26355;45.528;9.234;2023-07-16T09:28:18;17.08;;;7.32;;
40669;SDS011;26355;45.528;9.234;2023-07-16T09:30:45;16.55;;;7.22;;
40669;SDS011;26355;45.528;9.234;2023-07-16T09:33:18;19.33;;;8.07;;
40669;SDS011;26355;45.528;9.234;2023-07-16T09:35:47;16.65;;;7.72;;
40669;SDS011;26355;45.528;9.234;2023-07-16T09:38:13;17.70;;;7.72;;
40669;SDS011;26355;45.528;9.234;2023-07-16T09:40:39;18.50;;;7.13;;
40669;SDS011;26355;45.528;9.234;2023-07-16T09:43:07;18.00;;;7.35;;
40669;SDS011;26355;45.528;9.234;2023-07-16T09:45:34;18.83;;;7.68;;
40669;SDS011;26355;45.528;9.234;2023-07-16T09:48:00;19.13;;;7.77;;
40669;SDS011;26355;45.528;9.234;2023-07-16T09:50:29;16.55;;;7.05;;
40669;SDS011;26355;45.528;9.234;2023-07-16T09:52:57;17.27;;;7.60;;
40669;SDS011;26355;45.528;9.234;2023-07-16T09:55:23;16.73;;;7.10;;
40669;SDS011;26355;45.528;9.234;2023-07-16T09:57:50;17.77;;;8.13;;
40669;SDS011;26355;45.528;9.234;2023-07-16T10:00:18;16.85;;;7.32;;
40669;SDS011;26355;45.528;9.234;2023-07-16T10:02:46;17.65;;;8.02;;
40669;SDS011;26355;45.528;9.234;2023-07-16T10:07:54;17.15;;;6.88;;
40669;SDS011;26355;45.528;9.234;2023-07-16T10:10:38;17.98;;;7.20;;
40669;SDS011;26355;45.528;9.234;2023-07-16T10:13:08;15.40;;;6.93;;
40669;SDS011;26355;45.528;9.234;2023-07-16T10:15:36;15.55;;;6.30;;
40669;SDS011;26355;45.528;9.234;2023-07-16T10:18:01;19.35;;;7.13;;
40669;SDS011;26355;45.528;9.234;2023-07-16T10:23:12;17.02;;;7.38;;
40669;SDS011;26355;45.528;9.234;2023-07-16T10:25:39;19.13;;;7.28;;
40669;SDS011;26355;45.528;9.234;2023-07-16T10:28:05;16.95;;;6.60;;
40669;SDS011;26355;45.528;9.234;2023-07-16T10:30:32;18.17;;;7.50;;
40669;SDS011;26355;45.528;9.234;2023-07-16T10:33:02;18.45;;;7.63;;
40669;SDS011;26355;45.528;9.234;2023-07-16T10:35:35;16.02;;;6.75;;
40669;SDS011;26355;45.528;9.234;2023-07-16T10:38:06;16.60;;;6.43;;
40669;SDS011;26355;45.528;9.234;2023-07-16T10:40:32;17.05;;;7.35;;
40669;SDS011;26355;45.528;9.234;2023-07-16T10:42:57;17.83;;;7.67;;
40669;SDS011;26355;45.528;9.234;2023-07-16T10:45:23;19.25;;;7.35;;
40669;SDS011;26355;45.528;9.234;2023-07-16T10:47:53;16.60;;;7.43;;
40669;SDS011;26355;45.528;9.234;2023-07-16T10:50:19;16.33;;;7.47;;
40669;SDS011;26355;45.528;9.234;2023-07-16T10:52:50;18.25;;;7.15;;
40669;SDS011;26355;45.528;9.234;2023-07-16T10:55:19;18.88;;;7.00;;
40669;SDS011;26355;45.528;9.234;2023-07-16T10:57:48;16.80;;;7.53;;
40669;SDS011;26355;45.528;9.234;2023-07-16T11:00:15;17.17;;;7.32;;
40669;SDS011;26355;45.528;9.234;2023-07-16T11:02:42;18.02;;;7.68;;
40669;SDS011;26355;45.528;9.234;2023-07-16T11:05:12;18.15;;;7.22;;
40669;SDS011;26355;45.528;9.234;2023-07-16T11:07:42;18.38;;;6.80;;
40669;SDS011;26355;45.528;9.234;2023-07-16T11:10:09;17.02;;;7.22;;
40669;SDS011;26355;45.528;9.234;2023-07-16T11:12:34;17.60;;;6.40;;
40669;SDS011;26355;45.528;9.234;2023-07-16T11:15:00;15.23;;;6.33;;
40669;SDS011;26355;45.528;9.234;2023-07-16T11:17:25;14.90;;;5.20;;
40669;SDS011;26355;45.528;9.234;2023-07-16T11:19:52;14.63;;;5.63;;
40669;SDS011;26355;45.528;9.234;2023-07-16T11:22:19;16.50;;;6.57;;
40669;SDS011;26355;45.528;9.234;2023-07-16T11:24:45;19.60;;;6.43;;
40669;SDS011;26355;45.528;9.234;2023-07-16T11:27:27;16.92;;;6.15;;
40669;SDS011;26355;45.528;9.234;2023-07-16T11:29:56;17.75;;;5.93;;
40669;SDS011;26355;45.528;9.234;2023-07-16T11:32:33;15.55;;;5.93;;
40669;SDS011;26355;45.528;9.234;2023-07-16T11:34:59;15.20;;;5.10;;
40669;SDS011;26355;45.528;9.234;2023-07-16T11:37:27;15.38;;;5.05;;
40669;SDS011;26355;45.528;9.234;2023-07-16T11:40:00;18.88;;;5.15;;
40669;SDS011;26355;45.528;9.234;2023-07-16T11:42:35;14.13;;;4.38;;
40669;SDS011;26355;45.528;9.234;2023-07-16T11:45:04;15.43;;;4.45;;
40669;SDS011;26355;45.528;9.234;2023-07-16T11:47:39;13.00;;;4.43;;
40669;SDS011;26355;45.528;9.234;2023-07-16T11:50:05;16.80;;;5.13;;
40669;SDS011;26355;45.528;9.234;2023-07-16T11:52:32;20.65;;;5.63;;
40669;SDS011;26355;45.528;9.234;2023-07-16T11:54:57;16.37;;;6.20;;
40669;SDS011;26355;45.528;9.234;2023-07-16T11:57:28;17.45;;;5.50;;
40669;SDS011;26355;45.528;9.234;2023-07-16T11:59:54;14.03;;;4.80;;
40669;SDS011;26355;45.528;9.234;2023-07-16T12:02:20;14.20;;;5.60;;
40669;SDS011;26355;45.528;9.234;2023-07-16T12:04:46;14.20;;;5.13;;
40669;SDS011;26355;45.528;9.234;2023-07-16T12:07:12;14.32;;;5.38;;
40669;SDS011;26355;45.528;9.234;2023-07-16T12:09:38;13.73;;;4.73;;
40669;SDS011;26355;45.528;9.234;2023-07-16T12:12:04;14.57;;;5.27;;
40669;SDS011;26355;45.528;9.234;2023-07-16T12:14:30;14.25;;;4.78;;
40669;SDS011;26355;45.528;9.234;2023-07-16T12:16:56;15.23;;;5.10;;
40669;SDS011;26355;45.528;9.234;2023-07-16T12:19:21;13.20;;;4.83;;
40669;SDS011;26355;45.528;9.234;2023-07-16T12:21:47;15.27;;;5.60;;
40669;SDS011;26355;45.528;9.234;2023-07-16T12:24:13;15.17;;;5.17;;
40669;SDS011;26355;45.528;9.234;2023-07-16T12:26:38;13.13;;;5.20;;
40669;SDS011;26355;45.528;9.234;2023-07-16T12:29:04;14.07;;;4.53;;
40669;SDS011;26355;45.528;9.234;2023-07-16T12:31:30;13.37;;;4.73;;
40669;SDS011;26355;45.528;9.234;2023-07-16T12:33:56;17.42;;;6.25;;
40669;SDS011;26355;45.528;9.234;2023-07-16T12:36:23;13.57;;;4.53;;
40669;SDS011;26355;45.528;9.234;2023-07-16T12:38:48;15.30;;;5.40;;
40669;SDS011;26355;45.528;9.234;2023-07-16T12:41:14;14.07;;;4.87;;
40669;SDS011;26355;45.528;9.234;2023-07-16T12:43:40;13.35;;;5.05;;
40669;SDS011;26355;45.528;9.234;2023-07-16T12:46:06;13.70;;;4.97;;
40669;SDS011;26355;45.528;9.234;2023-07-16T12:48:32;18.42;;;5.75;;
40669;SDS011;26355;45.528;9.234;2023-07-16T12:50:58;15.87;;;6.30;;
40669;SDS011;26355;45.528;9.234;2023-07-16T12:53:24;13.17;;;4.87;;
40669;SDS011;26355;45.528;9.234;2023-07-16T12:55:50;14.48;;;5.20;;
40669;SDS011;26355;45.528;9.234;2023-07-16T12:58:16;15.07;;;5.70;;
40669;SDS011;26355;45.528;9.234;2023-07-16T13:00:42;15.83;;;5.27;;
40669;SDS011;26355;45.528;9.234;2023-07-16T13:03:08;17.43;;;5.47;;
40669;SDS011;26355;45.528;9.234;2023-07-16T13:05:36;12.93;;;4.88;;
40669;SDS011;26355;45.528;9.234;2023-07-16T13:08:05;14.13;;;5.25;;
40669;SDS011;26355;45.528;9.234;2023-07-16T13:10:31;13.53;;;4.83;;
40669;SDS011;26355;45.528;9.234;2023-07-16T13:12:57;11.87;;;4.60;;
40669;SDS011;26355;45.528;9.234;2023-07-16T13:15:22;14.87;;;5.50;;
40669;SDS011;26355;45.528;9.234;2023-07-16T13:17:48;13.87;;;4.73;;
40669;SDS011;26355;45.528;9.234;2023-07-16T13:20:15;14.47;;;5.13;;
40669;SDS011;26355;45.528;9.234;2023-07-16T13:22:41;14.25;;;5.18;;
40669;SDS011;26355;45.528;9.234;2023-07-16T13:25:06;12.57;;;4.47;;
40669;SDS011;26355;45.528;9.234;2023-07-16T13:27:32;15.57;;;4.70;;
40669;SDS011;26355;45.528;9.234;2023-07-16T13:29:57;15.83;;;4.60;;
40669;SDS011;26355;45.528;9.234;2023-07-16T13:32:23;13.97;;;4.97;;
40669;SDS011;26355;45.528;9.234;2023-07-16T13:34:49;13.30;;;4.50;;
40669;SDS011;26355;45.528;9.234;2023-07-16T13:37:14;16.17;;;5.00;;
40669;SDS011;26355;45.528;9.234;2023-07-16T13:39:40;14.70;;;4.87;;
40669;SDS011;26355;45.528;9.234;2023-07-16T13:42:05;14.27;;;5.30;;
40669;SDS011;26355;45.528;9.234;2023-07-16T13:44:34;14.10;;;5.10;;
40669;SDS011;26355;45.528;9.234;2023-07-16T13:47:00;15.05;;;5.40;;
40669;SDS011;26355;45.528;9.234;2023-07-16T13:49:25;13.57;;;4.83;;
40669;SDS011;26355;45.528;9.234;2023-07-16T13:51:51;14.67;;;4.77;;
40669;SDS011;26355;45.528;9.234;2023-07-16T13:54:17;15.63;;;4.77;;
40669;SDS011;26355;45.528;9.234;2023-07-16T13:56:42;15.77;;;5.00;;
40669;SDS011;26355;45.528;9.234;2023-07-16T13:59:08;15.53;;;5.20;;
40669;SDS011;26355;45.528;9.234;2023-07-16T14:01:37;12.17;;;4.30;;
40669;SDS011;26355;45.528;9.234;2023-07-16T14:04:03;16.02;;;5.13;;
40669;SDS011;26355;45.528;9.234;2023-07-16T14:06:29;15.03;;;4.70;;
40669;SDS011;26355;45.528;9.234;2023-07-16T14:08:55;15.63;;;5.03;;
40669;SDS011;26355;45.528;9.234;2023-07-16T14:11:20;15.10;;;4.93;;
40669;SDS011;26355;45.528;9.234;2023-07-16T14:13:47;14.68;;;4.88;;
40669;SDS011;26355;45.528;9.234;2023-07-16T14:16:16;14.45;;;4.60;;
40669;SDS011;26355;45.528;9.234;2023-07-16T14:18:42;17.03;;;4.80;;
40669;SDS011;26355;45.528;9.234;2023-07-16T14:21:07;17.57;;;4.87;;
40669;SDS011;26355;45.528;9.234;2023-07-16T14:23:33;16.50;;;5.23;;
40669;SDS011;26355;45.528;9.234;2023-07-16T14:25:58;14.70;;;4.33;;
40669;SDS011;26355;45.528;9.234;2023-07-16T14:28:24;12.13;;;3.90;;
40669;SDS011;26355;45.528;9.234;2023-07-16T14:30:49;14.73;;;4.40;;
40669;SDS011;26355;45.528;9.234;2023-07-16T14:33:15;14.13;;;4.23;;
40669;SDS011;26355;45.528;9.234;2023-07-16T14:35:41;14.43;;;4.50;;
40669;SDS011;26355;45.528;9.234;2023-07-16T14:38:06;15.87;;;4.23;;
40669;SDS011;26355;45.528;9.234;2023-07-16T14:40:32;13.83;;;4.23;;
40669;SDS011;26355;45.528;9.234;2023-07-16T14:42:57;16.57;;;4.77;;
40669;SDS011;26355;45.528;9.234;2023-07-16T14:45:23;19.47;;;4.10;;
40669;SDS011;26355;45.528;9.234;2023-07-16T14:47:49;16.43;;;5.00;;
40669;SDS011;26355;45.528;9.234;2023-07-16T14:50:15;18.07;;;5.63;;